createdAt,value
2018-02-12T00:00:00.394Z,4.40
2018-02-12T00:02:27.922Z,4.07
2018-02-12T00:04:55.429Z,4.60
2018-02-12T00:07:22.974Z,3.70
2018-02-12T00:09:50.501Z,2.80
2018-02-12T00:12:18.041Z,3.20
2018-02-12T00:14:45.596Z,3.33
2018-02-12T00:17:13.096Z,4.93
2018-02-12T00:19:40.643Z,2.20
2018-02-12T00:22:08.177Z,4.27
2018-02-12T00:24:35.697Z,3.10
2018-02-12T00:27:03.283Z,8.03
2018-02-12T00:29:31.600Z,5.43
2018-02-12T00:31:59.200Z,2.83
2018-02-12T00:34:26.792Z,7.00
2018-02-12T00:36:55.061Z,2.13
2018-02-12T00:39:23.393Z,1.40
2018-02-12T00:41:50.950Z,2.07
2018-02-12T00:44:18.465Z,1.73
2018-02-12T00:46:46.030Z,1.70
2018-02-12T00:49:13.580Z,1.80
2018-02-12T00:51:41.147Z,2.47
2018-02-12T00:54:08.712Z,1.90
2018-02-12T00:56:36.279Z,1.50
2018-02-12T00:59:03.833Z,2.13
2018-02-12T01:01:31.399Z,1.90
2018-02-12T01:03:58.940Z,2.00
2018-02-12T01:06:26.412Z,3.67
2018-02-12T01:08:54.017Z,2.93
2018-02-12T01:11:21.565Z,2.37
2018-02-12T01:13:49.132Z,2.57
2018-02-12T01:16:16.732Z,3.43
2018-02-12T01:18:45.033Z,3.63
2018-02-12T01:21:12.605Z,3.23
2018-02-12T01:23:40.169Z,2.43
2018-02-12T01:26:07.740Z,2.03
2018-02-12T01:28:35.351Z,2.67
2018-02-12T01:31:03.653Z,3.60
2018-02-12T01:33:31.235Z,1.97
2018-02-12T01:35:58.777Z,1.63
2018-02-12T01:38:26.298Z,2.87
2018-02-12T01:40:54.573Z,1.53
2018-02-12T01:43:22.847Z,2.20
2018-02-12T01:45:51.128Z,2.70
2018-02-12T01:48:19.412Z,2.10
2018-02-12T01:50:46.991Z,2.33
2018-02-12T01:53:14.578Z,2.37
2018-02-12T01:55:42.108Z,2.10
2018-02-12T01:58:09.745Z,1.87
2018-02-12T02:00:38.098Z,1.50
2018-02-12T02:03:05.672Z,1.70
2018-02-12T02:05:34.025Z,2.03
2018-02-12T02:08:01.576Z,2.73
2018-02-12T02:10:29.130Z,2.70
2018-02-12T02:12:56.686Z,2.40
2018-02-12T02:15:24.197Z,2.47
2018-02-12T02:17:52.491Z,1.70
2018-02-12T02:20:20.088Z,1.60
2018-02-12T02:22:47.583Z,4.30
2018-02-12T02:25:15.181Z,1.90
2018-02-12T02:27:42.761Z,1.70
2018-02-12T02:30:10.377Z,1.60
2018-02-12T02:32:38.705Z,2.00
2018-02-12T02:35:06.245Z,2.23
2018-02-12T02:37:33.754Z,2.03
2018-02-12T02:40:01.331Z,2.37
2018-02-12T02:42:29.634Z,2.50
2018-02-12T02:44:57.157Z,2.10
2018-02-12T02:47:25.490Z,4.27
2018-02-12T02:49:53.021Z,2.53
2018-02-12T02:52:20.580Z,2.17
2018-02-12T02:54:48.142Z,4.70
2018-02-12T02:57:15.670Z,2.07
2018-02-12T02:59:43.261Z,2.50
2018-02-12T03:02:10.757Z,4.47
2018-02-12T03:04:38.357Z,3.43
2018-02-12T03:07:05.893Z,4.77
2018-02-12T03:09:33.457Z,3.90
2018-02-12T03:12:00.949Z,10.03
2018-02-12T03:14:29.226Z,5.60
2018-02-12T03:16:56.781Z,3.70
2018-02-12T03:19:25.068Z,4.13
2018-02-12T03:21:52.572Z,5.13
2018-02-12T03:24:20.126Z,4.27
2018-02-12T03:26:47.644Z,3.93
2018-02-12T03:29:15.965Z,5.87
2018-02-12T03:31:43.477Z,3.53
2018-02-12T03:34:11.762Z,3.17
2018-02-12T03:36:39.285Z,2.30
2018-02-12T03:39:06.813Z,3.37
2018-02-12T03:41:34.325Z,2.57
2018-02-12T03:44:02.604Z,2.20
2018-02-12T03:46:30.866Z,3.60
2018-02-12T03:48:58.371Z,2.87
2018-02-12T03:51:25.888Z,3.50
2018-02-12T03:53:54.151Z,4.70
2018-02-12T03:56:21.667Z,2.63
2018-02-12T03:58:49.202Z,3.40
2018-02-12T04:01:16.751Z,2.50
2018-02-12T04:03:45.018Z,4.47
2018-02-12T04:06:13.322Z,3.20
2018-02-12T04:08:40.845Z,2.93
2018-02-12T04:11:08.370Z,3.07
2018-02-12T04:13:35.897Z,3.00
2018-02-12T04:16:03.437Z,2.63
2018-02-12T04:18:31.763Z,2.60
2018-02-12T04:20:59.339Z,4.50
2018-02-12T04:23:26.832Z,2.60
2018-02-12T04:25:55.159Z,4.83
2018-02-12T04:28:22.665Z,3.40
2018-02-12T04:30:50.966Z,2.87
2018-02-12T04:33:18.484Z,3.30
2018-02-12T04:35:46.017Z,6.27
2018-02-12T04:38:13.483Z,6.80
2018-02-12T04:40:41.038Z,4.10
2018-02-12T04:43:08.539Z,3.90
2018-02-12T04:45:36.798Z,3.17
2018-02-12T04:48:04.321Z,4.80
2018-02-12T04:50:31.831Z,5.20
2018-02-12T04:53:00.110Z,6.23
2018-02-12T04:55:28.383Z,4.27
2018-02-12T04:57:56.664Z,3.63
2018-02-12T05:00:24.944Z,3.67
2018-02-12T05:02:53.318Z,3.83
2018-02-12T05:05:21.610Z,4.10
2018-02-12T05:07:49.152Z,2.60
2018-02-12T05:10:17.416Z,5.23
2018-02-12T05:12:44.915Z,4.33
2018-02-12T05:15:12.422Z,6.83
2018-02-12T05:17:39.931Z,3.70
2018-02-12T05:20:07.404Z,4.23
2018-02-12T05:22:34.945Z,3.53
2018-02-12T05:25:02.437Z,5.30
2018-02-12T05:27:29.937Z,6.60
2018-02-12T05:29:58.206Z,6.03
2018-02-12T05:32:26.517Z,5.30
2018-02-12T05:34:54.041Z,3.60
2018-02-12T05:37:22.361Z,4.20
2018-02-12T05:39:49.873Z,3.70
2018-02-12T05:42:17.359Z,9.20
2018-02-12T05:44:44.848Z,3.03
2018-02-12T05:47:12.374Z,6.90
2018-02-12T05:49:39.881Z,5.00
2018-02-12T05:52:07.410Z,6.97
2018-02-12T05:54:34.895Z,5.07
2018-02-12T05:57:02.403Z,4.23
2018-02-12T05:59:30.658Z,4.73
2018-02-12T06:01:58.934Z,3.20
2018-02-12T06:04:27.227Z,6.13
2018-02-12T06:06:55.472Z,4.77
2018-02-12T06:09:23.007Z,6.60
2018-02-12T06:11:50.533Z,7.13
2018-02-12T06:14:18.069Z,6.00
2018-02-12T06:16:45.593Z,7.30
2018-02-12T06:19:13.098Z,5.27
2018-02-12T06:21:41.400Z,8.90
2018-02-12T06:24:08.942Z,9.03
2018-02-12T06:26:37.216Z,8.70
2018-02-12T06:29:05.493Z,6.17
2018-02-12T06:31:33.792Z,9.13
2018-02-12T06:34:01.326Z,5.23
2018-02-12T06:36:29.653Z,4.77
2018-02-12T06:38:57.450Z,4.73
2018-02-12T06:41:24.929Z,4.40
2018-02-12T06:43:53.201Z,4.80
2018-02-12T06:46:21.485Z,7.23
2018-02-12T06:48:49.748Z,6.77
2018-02-12T06:51:17.984Z,8.80
2018-02-12T06:53:45.461Z,5.90
2018-02-12T06:56:12.942Z,5.43
2018-02-12T06:58:41.183Z,6.80
2018-02-12T07:01:08.653Z,14.20
2018-02-12T07:03:36.127Z,5.40
2018-02-12T07:06:04.366Z,5.77
2018-02-12T07:08:31.850Z,6.23
2018-02-12T07:10:59.313Z,3.20
2018-02-12T07:13:26.790Z,4.53
2018-02-12T07:15:55.008Z,5.43
2018-02-12T07:18:22.483Z,8.00
2018-02-12T07:20:50.064Z,5.67
2018-02-12T07:23:17.592Z,8.37
2018-02-12T07:25:45.141Z,6.00
2018-02-12T07:28:12.667Z,5.57
2018-02-12T07:30:40.940Z,8.20
2018-02-12T07:33:08.454Z,7.07
2018-02-12T07:35:36.802Z,7.03
2018-02-12T07:38:04.342Z,5.87
2018-02-12T07:40:31.869Z,7.03
2018-02-12T07:42:59.378Z,9.50
2018-02-12T07:45:26.901Z,6.43
2018-02-12T07:47:55.176Z,5.57
2018-02-12T07:50:23.442Z,6.70
2018-02-12T07:52:50.939Z,5.10
2018-02-12T07:55:18.436Z,6.13
2018-02-12T07:57:45.948Z,6.83
2018-02-12T08:00:13.436Z,6.10
2018-02-12T08:02:40.974Z,9.63
2018-02-12T08:05:08.454Z,6.27
2018-02-12T08:07:35.955Z,8.47
2018-02-12T08:10:04.207Z,3.67
2018-02-12T08:12:31.686Z,6.00
2018-02-12T08:14:59.180Z,8.17
2018-02-12T08:17:26.660Z,8.53
2018-02-12T08:19:54.163Z,4.77
2018-02-12T08:22:21.680Z,5.43
2018-02-12T08:24:49.168Z,5.60
2018-02-12T08:27:16.668Z,5.87
2018-02-12T08:29:44.161Z,4.80
2018-02-12T08:32:11.661Z,5.37
2018-02-12T08:34:39.944Z,4.87
2018-02-12T08:37:07.474Z,5.30
2018-02-12T08:39:34.979Z,3.27
2018-02-12T08:42:02.472Z,8.13
2018-02-12T08:44:29.955Z,4.40
2018-02-12T08:46:58.237Z,7.80
2018-02-12T08:49:26.518Z,6.03
2018-02-12T08:51:54.785Z,5.93
2018-02-12T08:54:22.314Z,4.50
2018-02-12T08:56:49.861Z,7.30
2018-02-12T08:59:17.371Z,9.03
2018-02-12T09:01:44.901Z,5.23
2018-02-12T09:04:12.441Z,4.33
2018-02-12T09:06:39.961Z,6.43
2018-02-12T09:09:08.250Z,5.20
2018-02-12T09:11:35.757Z,9.77
2018-02-12T09:14:03.277Z,4.23
2018-02-12T09:16:30.847Z,6.03
2018-02-12T09:18:59.083Z,5.23
2018-02-12T09:21:27.362Z,4.97
2018-02-12T09:23:55.640Z,6.70
2018-02-12T09:26:23.283Z,4.90
2018-02-12T09:28:50.808Z,3.60
2018-02-12T09:31:18.338Z,9.00
2018-02-12T09:33:45.865Z,7.13
2018-02-12T09:36:14.148Z,5.00
2018-02-12T09:38:42.426Z,7.10
2018-02-12T09:41:10.706Z,5.80
2018-02-12T09:43:38.967Z,6.67
2018-02-12T09:46:06.466Z,12.27
2018-02-12T09:48:33.977Z,5.37
2018-02-12T09:51:01.479Z,7.13
2018-02-12T09:53:28.993Z,4.83
2018-02-12T09:55:56.505Z,4.90
2018-02-12T09:58:24.018Z,4.37
2018-02-12T10:00:51.522Z,3.77
2018-02-12T10:03:19.027Z,6.00
2018-02-12T10:05:46.556Z,6.60
2018-02-12T10:08:14.066Z,3.70
2018-02-12T10:10:42.325Z,4.70
2018-02-12T10:13:09.845Z,6.27
2018-02-12T10:15:37.346Z,5.53
2018-02-12T10:18:05.627Z,7.07
2018-02-12T10:20:33.925Z,7.57
2018-02-12T10:23:03.973Z,7.27
2018-02-12T10:25:28.970Z,8.13
2018-02-12T10:27:56.500Z,5.63
2018-02-12T10:30:24.776Z,9.43
2018-02-12T10:32:52.269Z,5.33
2018-02-12T10:35:19.758Z,6.40
2018-02-12T10:37:47.319Z,4.67
2018-02-12T10:40:14.753Z,7.70
2018-02-12T10:42:42.257Z,5.00
2018-02-12T10:45:10.582Z,7.37
2018-02-12T10:47:38.098Z,9.27
2018-02-12T10:50:06.377Z,7.37
2018-02-12T10:52:34.766Z,7.07
2018-02-12T10:55:02.277Z,8.30
2018-02-12T10:57:29.772Z,6.13
2018-02-12T10:59:58.049Z,8.87
2018-02-12T11:02:25.609Z,7.73
2018-02-12T11:04:53.887Z,8.07
2018-02-12T11:07:22.202Z,6.17
2018-02-12T11:09:49.778Z,10.20
2018-02-12T11:12:17.306Z,7.40
2018-02-12T11:14:44.807Z,8.57
2018-02-12T11:17:12.313Z,8.93
2018-02-12T11:19:39.848Z,7.63
2018-02-12T11:22:08.153Z,9.77
2018-02-12T11:24:35.682Z,7.90
2018-02-12T11:27:03.958Z,6.33
2018-02-12T11:29:32.244Z,6.27
2018-02-12T11:32:00.529Z,7.97
2018-02-12T11:34:29.709Z,8.37
2018-02-12T11:36:58.012Z,5.77
2018-02-12T11:39:25.544Z,7.90
2018-02-12T11:41:53.111Z,6.63
2018-02-12T11:44:21.398Z,10.50
2018-02-12T11:46:48.963Z,10.33
2018-02-12T11:49:16.508Z,6.67
2018-02-12T11:51:44.770Z,5.93
2018-02-12T11:54:12.296Z,6.90
2018-02-12T11:56:39.797Z,4.57
2018-02-12T11:59:08.060Z,7.43
2018-02-12T12:01:35.560Z,4.97
2018-02-12T12:04:03.102Z,4.50
2018-02-12T12:06:30.614Z,10.23
2018-02-12T12:08:58.180Z,10.10
2018-02-12T12:11:25.736Z,6.83
2018-02-12T12:13:53.245Z,4.70
2018-02-12T12:16:20.758Z,10.00
2018-02-12T12:18:48.275Z,6.67
2018-02-12T12:21:15.808Z,4.90
2018-02-12T12:23:44.085Z,3.97
2018-02-12T12:26:11.614Z,2.13
2018-02-12T12:28:39.097Z,5.13
2018-02-12T12:31:07.469Z,4.83
2018-02-12T12:33:35.014Z,3.57
2018-02-12T12:36:02.686Z,6.00
2018-02-12T12:38:30.295Z,4.93
2018-02-12T12:40:57.958Z,3.37
2018-02-12T12:43:25.526Z,4.87
2018-02-12T12:45:53.098Z,4.70
2018-02-12T12:48:20.655Z,4.60
2018-02-12T12:50:48.254Z,6.50
2018-02-12T12:53:16.540Z,5.60
2018-02-12T12:55:44.830Z,6.50
2018-02-12T12:58:12.435Z,7.07
2018-02-12T13:00:40.038Z,7.10
2018-02-12T13:03:08.352Z,4.80
2018-02-12T13:05:36.911Z,5.37
2018-02-12T13:08:04.454Z,3.10
2018-02-12T13:10:31.975Z,3.57
2018-02-12T13:12:59.665Z,5.13
2018-02-12T13:15:27.197Z,3.90
2018-02-12T13:17:54.724Z,5.90
2018-02-12T13:20:22.234Z,3.33
2018-02-12T13:22:49.754Z,3.70
2018-02-12T13:25:17.299Z,3.00
2018-02-12T13:27:44.801Z,3.00
2018-02-12T13:30:12.436Z,3.70
2018-02-12T13:32:40.064Z,4.40
2018-02-12T13:35:08.415Z,3.50
2018-02-12T13:37:36.120Z,2.67
2018-02-12T13:40:03.766Z,5.73
2018-02-12T13:42:31.397Z,4.20
2018-02-12T13:44:59.980Z,4.97
2018-02-12T13:47:27.630Z,4.60
2018-02-12T13:49:55.268Z,6.70
2018-02-12T13:52:22.818Z,4.37
2018-02-12T13:54:50.369Z,5.10
2018-02-12T13:57:18.016Z,3.30
2018-02-12T13:59:45.653Z,3.13
2018-02-12T14:02:13.186Z,5.90
2018-02-12T14:04:40.845Z,3.50
2018-02-12T14:07:08.447Z,6.60
2018-02-12T14:09:36.740Z,5.40
2018-02-12T14:12:04.446Z,3.50
2018-02-12T14:14:32.278Z,5.13
2018-02-12T14:16:59.808Z,3.90
2018-02-12T14:19:28.244Z,2.37
2018-02-12T14:21:55.940Z,2.70
2018-02-12T14:24:23.573Z,6.53
2018-02-12T14:26:51.240Z,3.70
2018-02-12T14:29:18.865Z,2.23
2018-02-12T14:31:46.493Z,4.70
2018-02-12T14:34:14.044Z,2.53
2018-02-12T14:36:41.627Z,5.37
2018-02-12T14:39:09.960Z,5.13
2018-02-12T14:41:37.586Z,6.80
2018-02-12T14:44:05.181Z,5.80
2018-02-12T14:46:32.784Z,2.60
2018-02-12T14:49:01.146Z,3.67
2018-02-12T14:51:28.644Z,4.20
2018-02-12T14:53:56.195Z,4.80
2018-02-12T14:56:23.835Z,5.67
2018-02-12T14:58:52.143Z,3.03
2018-02-12T15:01:19.682Z,3.80
2018-02-12T15:03:47.952Z,4.13
2018-02-12T15:06:16.292Z,3.20
2018-02-12T15:08:43.848Z,3.60
2018-02-12T15:11:11.356Z,3.27
2018-02-12T15:13:39.625Z,2.60
2018-02-12T15:16:07.912Z,2.80
2018-02-12T15:18:36.188Z,2.70
2018-02-12T15:21:04.494Z,3.03
2018-02-12T15:23:32.024Z,6.03
2018-02-12T15:25:59.577Z,2.30
2018-02-12T15:28:27.880Z,4.17
2018-02-12T15:30:55.406Z,2.00
2018-02-12T15:33:23.718Z,3.53
2018-02-12T15:35:51.244Z,5.27
2018-02-12T15:38:19.529Z,3.53
2018-02-12T15:40:47.840Z,3.93
2018-02-12T15:43:15.346Z,5.23
2018-02-12T15:45:42.876Z,2.90
2018-02-12T15:48:11.269Z,2.23
2018-02-12T15:50:38.936Z,2.77
2018-02-12T15:53:06.538Z,3.03
2018-02-12T15:55:34.183Z,5.00
2018-02-12T15:58:02.470Z,3.20
2018-02-12T16:00:30.083Z,3.83
2018-02-12T16:02:57.747Z,3.17
2018-02-12T16:05:25.345Z,3.27
2018-02-12T16:07:52.852Z,3.00
2018-02-12T16:10:20.319Z,3.63
2018-02-12T16:12:47.842Z,3.67
2018-02-12T16:15:15.327Z,3.47
2018-02-12T16:17:43.182Z,3.43
2018-02-12T16:20:10.747Z,3.67
2018-02-12T16:22:38.215Z,5.80
2018-02-12T16:25:06.311Z,3.00
2018-02-12T16:27:33.838Z,2.90
2018-02-12T16:30:01.387Z,2.93
2018-02-12T16:32:28.898Z,3.23
2018-02-12T16:34:56.435Z,4.70
2018-02-12T16:37:23.963Z,4.70
2018-02-12T16:39:52.630Z,4.37
2018-02-12T16:42:20.149Z,3.13
2018-02-12T16:44:47.668Z,3.10
2018-02-12T16:47:15.181Z,4.40
2018-02-12T16:49:42.694Z,6.97
2018-02-12T16:52:10.185Z,10.83
2018-02-12T16:54:37.701Z,5.73
2018-02-12T16:57:05.231Z,5.90
2018-02-12T16:59:33.504Z,4.77
2018-02-12T17:02:01.808Z,5.50
2018-02-12T17:04:29.329Z,8.43
2018-02-12T17:06:57.612Z,5.70
2018-02-12T17:09:25.925Z,5.37
2018-02-12T17:11:53.473Z,3.87
2018-02-12T17:14:21.002Z,9.13
2018-02-12T17:16:48.586Z,12.10
2018-02-12T17:19:16.105Z,18.90
2018-02-12T17:21:43.632Z,16.53
2018-02-12T17:24:11.141Z,10.90
2018-02-12T17:26:39.421Z,9.73
2018-02-12T17:29:07.684Z,14.13
2018-02-12T17:31:35.366Z,11.63
2018-02-12T17:34:03.645Z,7.20
2018-02-12T17:36:31.930Z,12.27
2018-02-12T17:41:33.312Z,7.23
2018-02-12T17:44:00.805Z,6.93
2018-02-12T17:46:28.338Z,9.07
2018-02-12T17:48:55.914Z,7.73
2018-02-12T17:51:23.461Z,10.17
2018-02-12T17:53:51.103Z,8.23
2018-02-12T17:56:18.755Z,6.10
2018-02-12T17:58:46.404Z,8.90
2018-02-12T18:01:15.757Z,7.77
2018-02-12T18:03:43.317Z,7.30
2018-02-12T18:06:12.704Z,7.10
2018-02-12T18:08:40.242Z,9.00
2018-02-12T18:11:07.829Z,13.90
2018-02-12T18:13:35.386Z,12.30
2018-02-12T18:16:02.913Z,9.53
2018-02-12T18:18:31.215Z,8.00
2018-02-12T18:20:58.765Z,6.77
2018-02-12T18:23:26.330Z,7.90
2018-02-12T18:25:53.883Z,11.23
2018-02-12T18:28:21.511Z,10.43
2018-02-12T18:33:23.750Z,10.33
2018-02-12T18:35:51.298Z,8.20
2018-02-12T18:38:18.836Z,6.60
2018-02-12T18:40:46.374Z,9.37
2018-02-12T18:43:14.677Z,9.97
2018-02-12T18:45:42.194Z,12.23
2018-02-12T18:48:09.758Z,11.50
2018-02-12T18:50:37.377Z,12.83
2018-02-12T18:53:04.908Z,9.90
2018-02-12T18:55:33.240Z,10.20
2018-02-12T18:58:00.954Z,9.10
2018-02-12T19:00:29.257Z,8.70
2018-02-12T19:02:56.808Z,9.03
2018-02-12T19:05:24.329Z,9.10
2018-02-12T19:07:51.861Z,11.27
2018-02-12T19:10:19.413Z,9.20
2018-02-12T19:12:47.722Z,11.10
2018-02-12T19:15:16.001Z,10.00
2018-02-12T19:17:44.307Z,11.50
2018-02-12T19:20:11.907Z,12.83
2018-02-12T19:22:40.208Z,12.03
2018-02-12T19:25:07.745Z,8.03
2018-02-12T19:27:35.272Z,7.27
2018-02-12T19:30:02.811Z,9.70
2018-02-12T19:32:31.077Z,9.30
2018-02-12T19:34:59.374Z,16.83
2018-02-12T19:37:26.896Z,15.10
2018-02-12T19:39:54.433Z,14.17
2018-02-12T19:42:21.956Z,11.90
2018-02-12T19:44:49.526Z,8.63
2018-02-12T19:47:17.097Z,10.77
2018-02-12T19:49:44.612Z,14.50
2018-02-12T19:52:12.898Z,7.40
2018-02-12T19:54:41.202Z,8.10
2018-02-12T19:57:08.746Z,7.00
2018-02-12T19:59:36.317Z,6.90
2018-02-12T20:02:03.837Z,8.33
2018-02-12T20:04:31.409Z,12.83
2018-02-12T20:06:58.973Z,14.97
2018-02-12T20:09:26.493Z,8.40
2018-02-12T20:11:54.009Z,7.07
2018-02-12T20:14:21.588Z,10.70
2018-02-12T20:16:49.106Z,11.60
2018-02-12T20:19:16.664Z,8.40
2018-02-12T20:21:44.962Z,8.37
2018-02-12T20:24:12.526Z,7.90
2018-02-12T20:26:40.034Z,9.27
2018-02-12T20:29:07.602Z,7.20
2018-02-12T20:31:35.908Z,7.50
2018-02-12T20:34:03.459Z,10.40
2018-02-12T20:36:31.791Z,6.87
2018-02-12T20:38:59.316Z,14.73
2018-02-12T20:41:26.863Z,6.60
2018-02-12T20:43:54.396Z,6.77
2018-02-12T20:46:22.010Z,7.57
2018-02-12T20:48:49.529Z,7.03
2018-02-12T20:51:17.819Z,5.03
2018-02-12T20:53:46.146Z,4.63
2018-02-12T20:56:13.784Z,9.63
2018-02-12T20:58:41.316Z,5.53
2018-02-12T21:01:08.866Z,7.20
2018-02-12T21:03:37.144Z,7.70
2018-02-12T21:06:04.727Z,7.13
2018-02-12T21:08:32.301Z,5.57
2018-02-12T21:10:59.845Z,7.07
2018-02-12T21:13:28.203Z,8.37
2018-02-12T21:15:56.569Z,6.27
2018-02-12T21:18:24.865Z,13.60
2018-02-12T21:20:53.162Z,11.70
2018-02-12T21:23:20.709Z,9.60
2018-02-12T21:25:48.248Z,6.37
2018-02-12T21:28:16.557Z,7.03
2018-02-12T21:30:44.114Z,8.77
2018-02-12T21:33:11.661Z,6.67
2018-02-12T21:35:39.221Z,5.73
2018-02-12T21:38:06.757Z,6.60
2018-02-12T21:40:35.145Z,8.70
2018-02-12T21:43:02.659Z,5.60
2018-02-12T21:45:30.245Z,4.60
2018-02-12T21:47:57.749Z,10.83
2018-02-12T21:50:25.286Z,8.33
2018-02-12T21:52:53.573Z,6.00
2018-02-12T21:55:21.181Z,2.27
2018-02-12T21:57:48.762Z,6.20
2018-02-12T22:00:16.316Z,5.17
2018-02-12T22:02:43.854Z,5.70
2018-02-12T22:05:11.414Z,7.90
2018-02-12T22:07:38.932Z,6.90
2018-02-12T22:10:06.444Z,4.63
2018-02-12T22:12:33.955Z,5.80
2018-02-12T22:15:01.601Z,4.50
2018-02-12T22:17:29.901Z,3.93
2018-02-12T22:19:57.425Z,3.50
2018-02-12T22:22:25.737Z,5.93
2018-02-12T22:24:53.260Z,4.53
2018-02-12T22:27:21.572Z,7.90
2018-02-12T22:29:49.099Z,6.87
2018-02-12T22:32:16.647Z,3.07
2018-02-12T22:34:44.189Z,5.27
2018-02-12T22:37:11.716Z,8.13
2018-02-12T22:39:39.290Z,17.43
2018-02-12T22:42:06.833Z,4.17
2018-02-12T22:44:34.363Z,4.77
2018-02-12T22:47:01.916Z,5.43
2018-02-12T22:49:30.287Z,5.50
2018-02-12T22:54:31.866Z,6.80
2018-02-12T22:57:00.167Z,6.40
2018-02-12T22:59:27.693Z,7.63
2018-02-12T23:01:55.984Z,5.17
2018-02-12T23:04:24.278Z,7.77
2018-02-12T23:06:51.860Z,4.50
2018-02-12T23:09:19.392Z,7.40
2018-02-12T23:11:46.941Z,4.70
2018-02-12T23:14:15.239Z,4.73
2018-02-12T23:16:48.487Z,9.20
2018-02-12T23:19:16.026Z,5.97
2018-02-12T23:21:43.549Z,4.10
2018-02-12T23:24:11.085Z,6.50
2018-02-12T23:26:39.457Z,4.20
2018-02-12T23:29:07.754Z,3.83
2018-02-12T23:31:35.350Z,6.20
2018-02-12T23:34:03.593Z,7.13
2018-02-12T23:36:31.160Z,6.37
2018-02-12T23:38:58.713Z,5.83
2018-02-12T23:41:26.228Z,4.50
2018-02-12T23:43:53.779Z,9.83
2018-02-12T23:46:21.286Z,6.50
2018-02-12T23:48:48.837Z,6.10
2018-02-12T23:51:17.112Z,2.60
2018-02-12T23:53:45.423Z,5.93
2018-02-12T23:56:12.936Z,7.40
2018-02-12T23:58:41.245Z,8.10
